Weather observations for the past three days for
Hewanorra International Airport
Imperial (Metric)
Date Time (ast) Wind (mph) Vis. (mi.) Weather Sky Cond. Temperature (ºF) Relative Humidity Wind Chill (°F) Heat Index (°F) Pressure Precipitation (in)
Air Dwpt 6 hour altimeter (in) sea level (mb) 1 hr 3 hr 6 hr
Max. Min.
10 03:00 E 23 0.00 A Few Clouds and Breezy FEW024 80.6 71.6 74% 85 0 0.0
10 02:00 E 23 0.00 Showers in Vicinity and Breezy FEW022 80.6 73.4 79% 85 0 0.0
10 01:00 E 21 0.00 Partly Cloudy and Breezy SCT023 80.6 73.4 79% 85 0 0.0
10 00:00 E 23 0.00 A Few Clouds and Breezy FEW023 80.6 73.4 79% 85 0 0.0
09 23:00 E 21 0.00 Showers in Vicinity and Breezy SCT023 80.6 73.4 79% 85 0 0.0
09 22:00 E 21 0.00 Partly Cloudy and Breezy SCT024 80.6 73.4 79% 85 0 0.0
09 21:00 E 20 0.00 A Few Clouds FEW025 80.6 73.4 79% 85 0 0.0
09 20:00 E 20 0.00 Partly Cloudy SCT025 80.6 73.4 79% 85 0 0.0
09 19:00 E 17 0.00 A Few Clouds FEW026 82.4 73.4 74% 88 0 0.0
09 18:00 E 18 0.00 Partly Cloudy SCT026 82.4 73.4 74% 88 0 0.0
09 17:00 E 17 0.00 Partly Cloudy SCT027 84.2 73.4 70% 91 0 0.0
09 16:00 E 18 0.00 A Few Clouds FEW028 84.2 73.4 70% 91 0 0.0
09 15:00 E 17 0.00 A Few Clouds FEW028 86 73.4 66% 93 0 0.0
09 14:00 E 18 0.00 A Few Clouds FEW028 86 73.4 66% 93 0 0.0
09 12:00 SE 17 0.00 A Few Clouds FEW028 86 73.4 66% 93 0 0.0
09 11:00 E 21 0.00 A Few Clouds and Breezy FEW028 86 75.2 70% 95 0 0.0
09 10:00 E 20 0.00 A Few Clouds FEW028 86 73.4 66% 93 0 0.0
09 09:00 E 22 0.00 Mostly Cloudy and Breezy BKN024 82.4 73.4 74% 88 0 0.0
09 08:00 E 17 0.00 A Few Clouds FEW026 84.2 78.8 84% 96 0 0.0
09 07:00 E 16 0.00 Partly Cloudy SCT026 82.4 71.6 70% 87 0 0.0
09 06:00 E 14 0.00 Partly Cloudy SCT024 80.6 71.6 74% 85 0 0.0
09 05:00 E 15 0.00 Partly Cloudy SCT023 80.6 71.6 74% 85 0 0.0
09 04:00 E 13 0.00 Partly Cloudy SCT023 78.8 71.6 79% 82 0 0.0
09 03:00 E 14 0.00 Partly Cloudy SCT024 80.6 71.6 74% 85 0 0.0
09 02:00 E 20 0.00 Partly Cloudy SCT024 78.8 71.6 79% 82 0 0.0
09 01:00 E 15 0.00 Mostly Cloudy BKN024 78.8 71.6 79% 82 0 0.0
09 00:00 E 14 0.00 Partly Cloudy SCT025 80.6 71.6 74% 85 0 0.0
08 23:00 E 14 0.00 A Few Clouds FEW026 80.6 69.8 70% 84 0 0.0
08 22:00 E 16 0.00 A Few Clouds FEW025 80.6 69.8 70% 84 0 0.0
08 21:00 E 16 0.00 Partly Cloudy SCT025 80.6 71.6 74% 85 0 0.0
08 20:00 E 14 0.00 Partly Cloudy SCT025 80.6 73.4 79% 85 0 0.0
08 19:00 E 13 0.00 Partly Cloudy SCT023 80.6 71.6 74% 85 0 0.0
08 18:00 E 18 0.00 Partly Cloudy SCT024 82.4 69.8 66% 86 0 0.0
08 17:00 E 18 0.00 Mostly Cloudy BKN025 82.4 73.4 74% 88 0 0.0
08 16:00 E 18 0.00 A Few Clouds FEW028 86 71.6 62% 92 0 0.0
08 15:00 E 17 0.00 A Few Clouds FEW028 86 71.6 62% 92 0 0.0
08 14:00 E 18 0.00 Partly Cloudy SCT029 86 73.4 66% 93 0 0.0
08 13:00 E 17 0.00 Partly Cloudy SCT029 87.8 73.4 62% 96 0 0.0
08 12:00 E 18 0.00 A Few Clouds FEW029 87.8 73.4 62% 96 0 0.0
08 11:00 E 18 0.00 Partly Cloudy SCT028 86 73.4 66% 93 0 0.0
08 10:00 E 18 0.00 Partly Cloudy SCT028 84.2 73.4 70% 91 0 0.0
08 09:00 E 21 0.00 Partly Cloudy and Breezy SCT027 84.2 71.6 66% 90 0 0.0
08 08:00 E 18 0.00 Partly Cloudy SCT026 82.4 71.6 70% 87 0 0.0
08 07:00 E 17 0.00 Partly Cloudy SCT025 80.6 71.6 74% 85 0 0.0
08 06:00 E 15 0.00 Partly Cloudy SCT025 80.6 71.6 74% 85 0 0.0
08 05:00 E 16 0.00 Partly Cloudy SCT024 80.6 71.6 74% 85 0 0.0
08 04:00 E 17 0.00 Partly Cloudy SCT024 80.6 73.4 79% 85 0 0.0
08 03:00 E 13 0.00 Partly Cloudy SCT024 80.6 73.4 79% 85 0 0.0
08 02:00 E 12 0.00 A Few Clouds FEW025 80.6 73.4 79% 85 0 0.0
08 01:00 E 17 0.00 A Few Clouds FEW025 80.6 73.4 79% 85 0 0.0
08 00:00 E 20 0.00 A Few Clouds FEW025 80.6 73.4 79% 85 0 0.0
07 23:00 E 21 0.00 A Few Clouds and Breezy FEW026 80.6 73.4 79% 85 0 0.0
07 21:00 E 15 0.00 A Few Clouds FEW026 80.6 71.6 74% 85 0 0.0
07 20:00 E 17 0.00 A Few Clouds FEW026 80.6 71.6 74% 85 0 0.0
07 19:00 E 16 0.00 A Few Clouds FEW026 82.4 71.6 70% 87 0 0.0
07 18:00 E 17 0.00 A Few Clouds FEW027 82.4 71.6 70% 87 0 0.0
07 17:00 E 17 0.00 A Few Clouds FEW027 84.2 73.4 70% 91 0 0.0
07 16:00 E 21 0.00 A Few Clouds and Breezy FEW027 86 73.4 66% 93 0 0.0
07 15:00 E 23 0.00 Partly Cloudy and Breezy SCT027 86 73.4 66% 93 0 0.0
07 14:00 E 24 0.00 A Few Clouds and Breezy FEW029 86 73.4 66% 93 0 0.0
07 13:00 E 25 0.00 A Few Clouds and Breezy FEW029 87.8 71.6 59% 94 0 0.0
07 12:00 E 25 0.00 A Few Clouds and Breezy FEW028 87.8 73.4 62% 96 0 0.0
07 11:00 E 22 0.00 A Few Clouds and Breezy FEW027 87.8 75.2 66% 98 0 0.0
07 10:00 E 21 0.00 Partly Cloudy and Breezy SCT026 86 75.2 70% 95 0 0.0
07 09:00 E 20 0.00 Partly Cloudy SCT026 86 75.2 70% 95 0 0.0
07 08:00 E 17 0.00 Mostly Cloudy BKN025 82.4 75.2 79% 89 0 0.0
07 07:00 E 18 0.00 Mostly Cloudy BKN023 80.6 75.2 84% 86 0 0.0
07 06:00 E 15 0.00 Mostly Cloudy BKN025 80.6 75.2 84% 86 0 0.0
07 05:00 E 12 0.00 Mostly Cloudy BKN024 80.6 73.4 79% 85 0 0.0
07 04:00 E 10 0.00 Mostly Cloudy BKN024 80.6 73.4 79% 85 0 0.0
Date Time (ast) Wind (mph) Vis. (mi.) Weather Sky Cond. Air Dwpt Max. Min. Relative Humidity Wind Chill (°F) Heat Index (°F) altimeter (in) sea level (mb) 1 hr 3 hr 6 hr
6 hour
Temperature (ºF) Pressure Precipitation (in)